Time;durP1;ratioP1;P1;durP2;ratioP2;P2;SDS_P1;SDS_P2;PMS_P1;PMS_P2;Temp;Humidity;BMP_temperature;BMP_pressure;BME280_temperature;BME280_humidity;BME280_pressure;Samples;Min_cycle;Max_cycle;Signal;HPM_P1;HPM_P2
2021/04/12 00:01:45;;;;;;;0.20;0.20;;;5.80;99.90;;;;;;4976172;28;20184;-80
2021/04/12 00:04:46;;;;;;;0.10;0.10;;;6.00;99.90;;;;;;4976671;28;20198;-80
2021/04/12 00:07:35;;;;;;;0.43;0.43;;;6.10;99.90;;;;;;4982660;28;20221;-80
2021/04/12 00:10:04;;;;;;;0.50;0.50;;;6.10;99.90;;;;;;4967584;28;20222;-80
2021/04/12 00:12:41;;;;;;;0.23;0.23;;;5.90;99.90;;;;;;4980136;28;20246;-80
2021/04/12 00:15:28;;;;;;;0.40;0.40;;;6.00;99.90;;;;;;4986687;28;20215;-80
2021/04/12 00:17:58;;;;;;;1.20;0.30;;;6.10;99.90;;;;;;4975714;28;20591;-79
2021/04/12 00:20:40;;;;;;;0.50;0.50;;;6.10;99.90;;;;;;4975825;28;20214;-79
2021/04/12 00:23:15;;;;;;;0.40;0.40;;;6.20;99.90;;;;;;4975743;28;20199;-80
2021/04/12 00:26:06;;;;;;;2.33;0.50;;;6.10;99.90;;;;;;4977826;28;20302;-80
2021/04/12 00:28:40;;;;;;;0.47;0.30;;;5.90;99.90;;;;;;4982107;28;20210;-80
2021/04/12 00:31:18;;;;;;;0.47;0.47;;;6.00;99.90;;;;;;4975458;28;20215;-80
2021/04/12 00:33:48;;;;;;;2.00;0.77;;;6.00;99.90;;;;;;4993784;28;20198;-80
2021/04/12 00:36:42;;;;;;;0.40;0.40;;;6.10;99.90;;;;;;4976961;28;20726;-80
2021/04/12 00:39:15;;;;;;;0.33;0.33;;;6.20;99.90;;;;;;4977048;28;20187;-80
2021/04/12 00:42:17;;;;;;;0.23;0.23;;;6.30;99.90;;;;;;4975835;28;20195;-79
2021/04/12 00:44:57;;;;;;;0.10;0.10;;;6.40;99.90;;;;;;4976261;28;20655;-80
2021/04/12 00:47:50;;;;;;;2.40;0.53;;;6.00;99.90;;;;;;4994586;28;20184;-78
2021/04/12 00:50:35;;;;;;;0.30;0.30;;;5.90;99.90;;;;;;4990857;28;20595;-80
2021/04/12 00:53:18;;;;;;;0.43;0.43;;;6.00;99.90;;;;;;4973001;28;20268;-80
2021/04/12 00:55:54;;;;;;;0.60;0.60;;;6.10;99.90;;;;;;4993206;28;20209;-80
2021/04/12 00:58:23;;;;;;;0.70;0.70;;;6.00;99.90;;;;;;4976330;28;20199;-79
2021/04/12 01:01:13;;;;;;;0.57;0.37;;;6.00;99.90;;;;;;4974849;28;20180;-80
2021/04/12 01:03:47;;;;;;;0.40;0.40;;;6.00;99.90;;;;;;4986221;28;20210;-80
2021/04/12 01:06:41;;;;;;;0.20;0.20;;;5.80;99.90;;;;;;4968706;28;20202;-80
2021/04/12 01:09:42;;;;;;;0.20;0.20;;;5.60;99.90;;;;;;4975140;28;20208;-80
2021/04/12 01:12:25;;;;;;;0.40;0.40;;;5.80;99.90;;;;;;4928643;29;20197;-78
2021/04/12 01:15:10;;;;;;;0.67;0.67;;;5.90;99.90;;;;;;4984420;28;20690;-80
2021/04/12 01:18:14;;;;;;;0.23;0.23;;;6.00;99.90;;;;;;4990590;28;20723;-79
2021/04/12 01:20:57;;;;;;;3.30;0.30;;;6.00;99.90;;;;;;4989571;28;20678;-80
2021/04/12 01:23:41;;;;;;;0.40;0.40;;;6.00;99.90;;;;;;4985838;28;20198;-80
2021/04/12 01:26:33;;;;;;;0.10;0.10;;;6.00;99.90;;;;;;4981481;28;20200;-79
2021/04/12 01:29:13;;;;;;;0.20;0.20;;;5.90;99.90;;;;;;4986044;28;20621;-80
2021/04/12 01:32:06;;;;;;;0.20;0.20;;;6.00;99.90;;;;;;4987569;28;20183;-80
2021/04/12 01:34:50;;;;;;;0.27;0.27;;;5.80;99.90;;;;;;4988181;28;20188;-80
2021/04/12 01:37:53;;;;;;;0.30;0.30;;;5.70;99.90;;;;;;4991840;28;20211;-80
2021/04/12 01:40:39;;;;;;;0.77;0.40;;;5.60;99.90;;;;;;4988768;28;20643;-80
2021/04/12 01:43:42;;;;;;;0.13;0.13;;;5.60;99.90;;;;;;4974972;28;20168;-79
2021/04/12 01:46:19;;;;;;;0.40;0.40;;;5.70;99.90;;;;;;4975250;28;20282;-80
2021/04/12 01:49:06;;;;;;;0.97;0.40;;;5.80;99.90;;;;;;4987541;28;20187;-78
2021/04/12 01:51:53;;;;;;;0.53;0.53;;;5.70;99.90;;;;;;4974883;28;20591;-80
2021/04/12 01:54:56;;;;;;;0.13;0.13;;;5.80;99.90;;;;;;4989647;28;20191;-79
2021/04/12 01:57:46;;;;;;;0.37;0.37;;;5.90;99.90;;;;;;4986683;28;20249;-80
2021/04/12 02:00:38;;;;;;;0.27;0.27;;;5.90;99.90;;;;;;4973218;28;20552;-79
2021/04/12 02:03:25;;;;;;;0.20;0.20;;;5.80;99.90;;;;;;4971846;28;20279;-80
2021/04/12 02:06:03;;;;;;;0.40;0.40;;;5.80;99.90;;;;;;4973620;28;20199;-78
2021/04/12 02:08:40;;;;;;;0.63;0.63;;;5.90;99.90;;;;;;4974872;28;20223;-80
2021/04/12 02:11:14;;;;;;;0.30;0.30;;;5.90;99.90;;;;;;4974570;28;20194;-79
2021/04/12 02:14:05;;;;;;;1.97;0.47;;;5.80;99.90;;;;;;4986582;28;20842;-80
2021/04/12 02:16:54;;;;;;;0.60;0.60;;;5.80;99.90;;;;;;4982498;28;20632;-80
2021/04/12 02:19:43;;;;;;;0.10;0.10;;;5.60;99.90;;;;;;4983345;28;20571;-79
2021/04/12 02:22:33;;;;;;;0.43;0.40;;;5.60;99.90;;;;;;4988660;28;20188;-79
2021/04/12 02:25:20;;;;;;;0.50;0.30;;;5.30;99.90;;;;;;4969309;28;20680;-80
2021/04/12 02:28:47;;;;;;;0.20;0.20;;;5.50;99.90;;;;;;4983056;28;20235;-79
2021/04/12 02:31:28;;;;;;;1.50;0.37;;;5.60;99.90;;;;;;4939349;28;20192;-80
2021/04/12 02:34:23;;;;;;;0.37;0.30;;;5.70;99.90;;;;;;4974450;28;20286;-80
2021/04/12 02:37:19;;;;;;;0.43;0.43;;;5.80;99.90;;;;;;4974192;28;20211;-80
2021/04/12 02:39:55;;;;;;;0.87;0.70;;;5.80;99.90;;;;;;4968858;28;20550;-80
2021/04/12 02:42:52;;;;;;;0.17;0.17;;;5.80;99.90;;;;;;4978921;28;20295;-80
2021/04/12 02:46:05;;;;;;;0.63;0.50;;;5.80;99.90;;;;;;4990706;28;20207;-80
2021/04/12 02:48:37;;;;;;;0.20;0.20;;;5.70;99.90;;;;;;4938783;28;20199;-80
2021/04/12 02:51:37;;;;;;;2.43;0.33;;;5.70;99.90;;;;;;4991805;28;20193;-80
2021/04/12 02:54:11;;;;;;;1.33;0.63;;;5.60;99.90;;;;;;4956314;28;20229;-80
2021/04/12 02:57:12;;;;;;;0.30;0.30;;;5.70;99.90;;;;;;4985127;28;20289;-78
2021/04/12 02:59:54;;;;;;;0.20;0.20;;;5.70;99.90;;;;;;4990811;28;20208;-79
2021/04/12 03:02:38;;;;;;;0.30;0.30;;;5.60;99.90;;;;;;4989554;28;20314;-82
2021/04/12 03:05:26;;;;;;;0.87;0.50;;;5.70;99.90;;;;;;4962398;28;20211;-83
2021/04/12 03:08:09;;;;;;;0.67;0.60;;;5.70;99.90;;;;;;4972928;28;20253;-78
2021/04/12 03:10:55;;;;;;;0.67;0.40;;;5.70;99.90;;;;;;4972184;28;20186;-80
2021/04/12 03:13:56;;;;;;;0.20;0.20;;;5.70;99.90;;;;;;4994181;28;20545;-80
2021/04/12 03:16:37;;;;;;;0.10;0.10;;;5.60;99.90;;;;;;4989274;28;20203;-79
2021/04/12 03:19:21;;;;;;;0.20;0.20;;;5.60;99.90;;;;;;4971298;28;20234;-80
2021/04/12 03:21:49;;;;;;;0.53;0.53;;;5.50;99.90;;;;;;4994083;28;20214;-80
2021/04/12 03:24:17;;;;;;;0.60;0.30;;;5.60;99.90;;;;;;4976257;28;20191;-80
2021/04/12 03:27:20;;;;;;;0.10;0.10;;;5.50;99.90;;;;;;4989427;28;20599;-80
2021/04/12 03:30:14;;;;;;;0.77;0.20;;;5.30;99.90;;;;;;4992228;28;20186;-80
2021/04/12 03:32:58;;;;;;;0.20;0.20;;;5.20;99.90;;;;;;4971981;28;20231;-79
2021/04/12 03:35:48;;;;;;;0.10;0.10;;;5.20;99.90;;;;;;4989323;28;20207;-80
2021/04/12 03:38:46;;;;;;;0.20;0.20;;;5.30;99.90;;;;;;4984747;28;20212;-81
2021/04/12 03:41:14;;;;;;;0.20;0.20;;;5.30;99.90;;;;;;4976656;28;20237;-80
2021/04/12 03:44:06;;;;;;;0.30;0.30;;;5.30;99.90;;;;;;4994542;28;20203;-81
2021/04/12 03:46:47;;;;;;;2.73;0.40;;;5.30;99.90;;;;;;4977771;28;20209;-80
2021/04/12 03:49:43;;;;;;;0.20;0.20;;;5.20;99.90;;;;;;4976235;28;20185;-81
2021/04/12 03:52:26;;;;;;;3.20;3.00;;;5.20;99.90;;;;;;4991313;28;20249;-80
2021/04/12 03:54:52;;;;;;;0.10;0.10;;;5.20;99.90;;;;;;4993507;28;20283;-80
2021/04/12 03:57:32;;;;;;;0.33;0.20;;;5.20;99.90;;;;;;4981487;28;20693;-80
2021/04/12 04:00:23;;;;;;;0.53;0.30;;;5.10;99.90;;;;;;4993588;28;20559;-80
2021/04/12 04:03:29;;;;;;;0.43;0.37;;;5.10;99.90;;;;;;4990132;28;20616;-79
2021/04/12 04:06:19;;;;;;;0.03;0.03;;;5.10;99.90;;;;;;4960997;28;20720;-79
2021/04/12 04:09:04;;;;;;;0.20;0.20;;;5.20;99.90;;;;;;4993457;28;20214;-80
2021/04/12 04:11:33;;;;;;;0.33;0.33;;;5.30;99.90;;;;;;4988413;28;20268;-79
2021/04/12 04:14:15;;;;;;;0.60;0.60;;;5.10;99.90;;;;;;4977149;28;20236;-80
2021/04/12 04:16:50;;;;;;;0.67;0.67;;;5.20;99.90;;;;;;4977330;28;20601;-80
2021/04/12 04:19:32;;;;;;;0.00;0.00;;;5.20;99.90;;;;;;4993478;28;20183;-81
2021/04/12 04:22:16;;;;;;;0.50;0.37;;;5.10;99.90;;;;;;4992814;28;20223;-81
2021/04/12 04:25:00;;;;;;;0.23;0.23;;;5.00;99.90;;;;;;4975449;28;20634;-79
2021/04/12 04:27:38;;;;;;;0.17;0.17;;;5.00;99.90;;;;;;4975379;28;20181;-81
2021/04/12 04:30:29;;;;;;;0.20;0.20;;;5.10;99.90;;;;;;4988748;28;20186;-79
2021/04/12 04:33:18;;;;;;;0.10;0.10;;;5.00;99.90;;;;;;4992710;28;20180;-83
2021/04/12 04:36:04;;;;;;;0.30;0.30;;;4.80;99.90;;;;;;4986168;28;20693;-83
2021/04/12 04:39:05;;;;;;;0.07;0.07;;;4.70;99.90;;;;;;4974803;28;20595;-83
2021/04/12 04:41:31;;;;;;;0.30;0.30;;;4.80;99.90;;;;;;4988266;28;20313;-79
2021/04/12 04:44:33;;;;;;;0.00;0.00;;;4.80;99.90;;;;;;4994796;28;20258;-78
2021/04/12 04:47:06;;;;;;;0.77;0.73;;;4.80;99.90;;;;;;4975835;28;20710;-79
2021/04/12 04:49:53;;;;;;;0.30;0.10;;;4.90;99.90;;;;;;4976720;28;20182;-79
2021/04/12 04:52:31;;;;;;;0.13;0.13;;;4.90;99.90;;;;;;4982757;28;20194;-79
2021/04/12 04:55:33;;;;;;;0.10;0.10;;;4.70;99.90;;;;;;4973862;28;20196;-79
2021/04/12 04:58:23;;;;;;;0.20;0.20;;;4.70;99.90;;;;;;4996698;28;20205;-83
2021/04/12 05:01:03;;;;;;;0.20;0.20;;;4.70;99.90;;;;;;4973710;28;20197;-79
2021/04/12 05:03:46;;;;;;;0.73;0.20;;;4.70;99.90;;;;;;4975115;28;20191;-80
2021/04/12 05:06:36;;;;;;;0.37;0.37;;;4.60;99.90;;;;;;4990562;28;20211;-79
2021/04/12 05:09:23;;;;;;;0.27;0.27;;;4.70;99.90;;;;;;4987967;28;20224;-83
2021/04/12 05:12:07;;;;;;;0.40;0.40;;;4.80;99.90;;;;;;4979589;28;20204;-83
2021/04/12 05:14:46;;;;;;;0.17;0.17;;;4.90;99.90;;;;;;4990169;28;20210;-80
2021/04/12 05:17:39;;;;;;;0.27;0.23;;;4.90;99.90;;;;;;4993763;28;20203;-80
2021/04/12 05:20:20;;;;;;;0.27;0.27;;;4.90;99.90;;;;;;4971942;28;20183;-80
2021/04/12 05:23:13;;;;;;;0.97;0.77;;;4.90;99.90;;;;;;4974538;28;20185;-79
2021/04/12 05:26:11;;;;;;;1.50;0.30;;;5.00;99.90;;;;;;4991218;28;20244;-80
2021/04/12 05:28:58;;;;;;;0.30;0.30;;;5.10;99.90;;;;;;4984802;28;20199;-78
2021/04/12 05:32:01;;;;;;;0.10;0.10;;;4.70;99.90;;;;;;4989647;28;20265;-80
2021/04/12 05:34:46;;;;;;;2.23;0.60;;;4.60;99.90;;;;;;4984640;28;20261;-79
2021/04/12 05:37:37;;;;;;;0.50;0.50;;;4.80;99.90;;;;;;4988737;28;20234;-80
2021/04/12 05:40:41;;;;;;;0.20;0.20;;;4.60;99.90;;;;;;4972176;28;20214;-80
2021/04/12 05:43:31;;;;;;;0.10;0.10;;;4.70;99.90;;;;;;4983387;28;20181;-80
2021/04/12 05:46:11;;;;;;;0.20;0.20;;;5.00;99.90;;;;;;4989956;28;20238;-78
2021/04/12 05:48:59;;;;;;;0.00;0.00;;;5.10;99.90;;;;;;4991925;28;20193;-80
2021/04/12 05:51:28;;;;;;;0.83;0.20;;;4.90;99.90;;;;;;4973400;28;21097;-80
2021/04/12 05:54:24;;;;;;;0.27;0.27;;;5.00;99.90;;;;;;4992296;28;20234;-80
2021/04/12 05:56:58;;;;;;;0.10;0.10;;;5.10;99.90;;;;;;4992971;28;20217;-80
2021/04/12 05:59:39;;;;;;;0.50;0.40;;;5.00;99.90;;;;;;4984604;28;20656;-80
2021/04/12 06:02:26;;;;;;;0.40;0.40;;;5.00;99.90;;;;;;4991809;28;20174;-80
2021/04/12 06:05:04;;;;;;;0.57;0.33;;;4.80;99.90;;;;;;4975886;28;20206;-80
2021/04/12 06:07:47;;;;;;;0.53;0.20;;;4.80;99.90;;;;;;4987815;28;20210;-79
2021/04/12 06:10:32;;;;;;;0.10;0.10;;;4.70;99.90;;;;;;4984035;28;20186;-80
2021/04/12 06:13:28;;;;;;;1.00;0.20;;;5.00;99.90;;;;;;4988201;28;20207;-79
2021/04/12 06:16:31;;;;;;;0.17;0.13;;;5.20;99.90;;;;;;4989639;28;20664;-80
2021/04/12 06:19:44;;;;;;;0.10;0.10;;;5.20;99.90;;;;;;4973753;28;20213;-80
2021/04/12 06:22:34;;;;;;;0.27;0.27;;;5.50;99.90;;;;;;4964960;28;20211;-78
2021/04/12 06:25:08;;;;;;;1.20;0.40;;;5.60;99.90;;;;;;4973878;28;20302;-81
2021/04/12 06:28:11;;;;;;;0.50;0.30;;;5.50;99.90;;;;;;4965098;28;20195;-80
2021/04/12 06:31:02;;;;;;;0.30;0.30;;;5.30;99.90;;;;;;4971115;28;20239;-80
2021/04/12 06:33:52;;;;;;;0.20;0.10;;;5.80;99.90;;;;;;4985143;28;20266;-79
2021/04/12 06:36:22;;;;;;;0.30;0.30;;;6.00;99.90;;;;;;4973366;28;20318;-80
2021/04/12 06:39:27;;;;;;;0.10;0.10;;;5.90;99.90;;;;;;4990281;28;20207;-78
2021/04/12 06:42:11;;;;;;;0.20;0.20;;;5.90;99.90;;;;;;4969802;28;20257;-79
2021/04/12 06:44:59;;;;;;;0.50;0.50;;;5.90;99.90;;;;;;4968669;28;20198;-80
2021/04/12 06:47:39;;;;;;;0.27;0.27;;;5.90;99.90;;;;;;4977926;28;20178;-83
2021/04/12 06:50:14;;;;;;;0.33;0.33;;;5.70;99.90;;;;;;4972431;28;20185;-81
2021/04/12 06:53:18;;;;;;;0.50;0.50;;;5.90;99.90;;;;;;4984866;28;20181;-82
2021/04/12 06:55:56;;;;;;;1.37;0.77;;;5.50;99.90;;;;;;4983114;28;20300;-83
2021/04/12 06:58:24;;;;;;;1.20;0.60;;;5.80;99.90;;;;;;4997870;28;20242;-80
2021/04/12 07:00:50;;;;;;;0.13;0.13;;;5.90;99.90;;;;;;4977944;28;20184;-80
2021/04/12 07:03:34;;;;;;;0.30;0.30;;;6.10;99.90;;;;;;4978610;28;20172;-81
2021/04/12 07:06:48;;;;;;;0.87;0.87;;;6.60;99.90;;;;;;4973156;28;20231;-80
2021/04/12 07:09:25;;;;;;;0.10;0.10;;;6.60;99.90;;;;;;4980921;28;20187;-80
2021/04/12 07:12:01;;;;;;;0.00;0.00;;;6.50;99.90;;;;;;4987367;28;20290;-79
2021/04/12 07:14:58;;;;;;;0.40;0.40;;;6.80;99.90;;;;;;4989603;28;20184;-80
2021/04/12 07:17:45;;;;;;;10.93;0.47;;;7.00;99.90;;;;;;4985664;28;20203;-79
2021/04/12 07:20:32;;;;;;;0.30;0.30;;;6.90;99.90;;;;;;4971790;28;20179;-78
2021/04/12 07:23:35;;;;;;;0.90;0.37;;;6.80;99.90;;;;;;4965933;28;20187;-80
2021/04/12 07:26:35;;;;;;;0.10;0.10;;;6.90;99.90;;;;;;4980592;28;20231;-80
2021/04/12 07:29:38;;;;;;;0.10;0.10;;;7.10;99.90;;;;;;4965768;28;20664;-78
2021/04/12 07:32:33;;;;;;;0.10;0.10;;;7.10;99.90;;;;;;4992281;28;20263;-79
2021/04/12 07:35:56;;;;;;;0.30;0.30;;;7.10;99.90;;;;;;4972199;28;20215;-78
2021/04/12 07:38:43;;;;;;;0.30;0.20;;;6.90;99.90;;;;;;4889823;29;20893;-79
2021/04/12 07:41:58;;;;;;;0.20;0.20;;;7.10;99.90;;;;;;4903930;29;20208;-78
2021/04/12 07:44:56;;;;;;;0.10;0.10;;;7.00;99.90;;;;;;4991309;28;20230;-79
2021/04/12 07:47:44;;;;;;;0.43;0.27;;;6.90;99.90;;;;;;4928825;28;20202;-78
2021/04/12 07:50:33;;;;;;;0.10;0.10;;;6.70;99.90;;;;;;4974418;28;20607;-80
2021/04/12 07:53:50;;;;;;;0.37;0.37;;;6.80;99.90;;;;;;4992959;28;20529;-78
2021/04/12 07:56:35;;;;;;;0.33;0.30;;;7.00;99.90;;;;;;4912510;28;20223;-79
2021/04/12 07:59:17;;;;;;;0.10;0.10;;;7.10;99.90;;;;;;4973029;28;20289;-80
2021/04/12 08:02:22;;;;;;;0.40;0.40;;;7.30;99.90;;;;;;4973607;28;20659;-79
2021/04/12 08:05:25;;;;;;;1.37;0.47;;;7.00;99.90;;;;;;4979545;28;20203;-80
2021/04/12 08:08:17;;;;;;;0.10;0.10;;;7.10;99.90;;;;;;4974051;28;20218;-80
2021/04/12 08:11:04;;;;;;;0.53;0.20;;;6.80;99.90;;;;;;5003882;28;20217;-79
2021/04/12 08:14:12;;;;;;;0.40;0.40;;;7.00;99.90;;;;;;4995468;28;20687;-80
2021/04/12 08:17:15;;;;;;;0.33;0.30;;;6.90;99.90;;;;;;4997167;28;20230;-81
2021/04/12 08:20:00;;;;;;;0.30;0.20;;;6.40;99.90;;;;;;4970508;28;20187;-78
2021/04/12 08:22:56;;;;;;;0.23;0.10;;;6.50;99.90;;;;;;4995808;28;20180;-80
2021/04/12 08:25:22;;;;;;;0.30;0.30;;;6.40;99.90;;;;;;4977761;28;20290;-79
2021/04/12 08:28:12;;;;;;;0.37;0.20;;;6.80;99.90;;;;;;4996159;28;20322;-80
2021/04/12 08:30:56;;;;;;;1.60;1.50;;;6.70;99.90;;;;;;4976131;28;20180;-79
2021/04/12 08:33:51;;;;;;;0.07;0.07;;;7.10;99.90;;;;;;4979106;28;20215;-79
2021/04/12 08:36:35;;;;;;;0.20;0.20;;;7.40;99.90;;;;;;4957121;28;20688;-80
2021/04/12 08:39:20;;;;;;;0.10;0.10;;;8.00;99.90;;;;;;4992945;28;20224;-80
2021/04/12 08:42:10;;;;;;;0.17;0.17;;;8.50;99.90;;;;;;4995186;28;20691;-79
2021/04/12 08:44:57;;;;;;;0.10;0.10;;;8.60;99.90;;;;;;4970438;28;20235;-83
2021/04/12 08:47:38;;;;;;;0.10;0.10;;;8.90;99.90;;;;;;4993276;28;20192;-79
2021/04/12 08:50:42;;;;;;;0.47;0.40;;;8.70;99.90;;;;;;4987584;28;20185;-79
2021/04/12 08:53:48;;;;;;;1.60;0.30;;;8.30;99.90;;;;;;4935791;29;20721;-80
2021/04/12 08:56:50;;;;;;;0.37;0.27;;;8.20;99.90;;;;;;4935400;29;20296;-79
2021/04/12 08:59:49;;;;;;;0.47;0.20;;;8.40;99.90;;;;;;4971862;28;20227;-79
2021/04/12 09:02:51;;;;;;;0.10;0.10;;;8.50;99.90;;;;;;4977436;28;20242;-80
2021/04/12 09:05:32;;;;;;;0.10;0.10;;;8.10;99.90;;;;;;4973463;28;20203;-79
2021/04/12 09:08:44;;;;;;;0.10;0.10;;;8.20;99.90;;;;;;4972913;28;20189;-79
2021/04/12 09:11:28;;;;;;;0.10;0.10;;;8.20;99.90;;;;;;4976203;28;20179;-79
2021/04/12 09:14:14;;;;;;;0.20;0.20;;;7.80;99.90;;;;;;4973653;28;20351;-79
2021/04/12 09:17:05;;;;;;;0.10;0.10;;;7.90;99.90;;;;;;4987821;28;20247;-81
2021/04/12 09:19:50;;;;;;;0.10;0.10;;;7.80;99.90;;;;;;4991507;28;20296;-82
2021/04/12 09:22:53;;;;;;;0.10;0.10;;;7.90;99.90;;;;;;4989328;28;20193;-82
2021/04/12 09:25:34;;;;;;;0.13;0.13;;;8.00;99.90;;;;;;4974733;28;20242;-82
2021/04/12 09:28:33;;;;;;;0.23;0.23;;;7.20;99.90;;;;;;4984215;28;20258;-82
2021/04/12 09:31:14;;;;;;;0.00;0.00;;;8.00;99.90;;;;;;4971896;28;20192;-82
2021/04/12 09:33:43;;;;;;;0.10;0.10;;;8.50;99.90;;;;;;4989061;28;20204;-81
2021/04/12 09:36:20;;;;;;;1.03;1.03;;;8.70;99.90;;;;;;4972331;28;20209;-82
2021/04/12 09:39:13;;;;;;;0.10;0.10;;;8.60;99.90;;;;;;4973130;28;20299;-81
2021/04/12 09:41:57;;;;;;;0.10;0.10;;;9.10;99.90;;;;;;4982884;28;20197;-83
2021/04/12 09:45:14;;;;;;;0.20;0.20;;;9.20;99.90;;;;;;4978506;28;20659;-83
2021/04/12 09:47:55;;;;;;;0.10;0.10;;;9.70;99.90;;;;;;4971233;28;20202;-81
2021/04/12 09:50:30;;;;;;;0.03;0.03;;;10.20;99.90;;;;;;4975768;28;20273;-81
2021/04/12 09:53:33;;;;;;;0.10;0.10;;;9.00;99.90;;;;;;4974631;28;20234;-82
2021/04/12 09:56:05;;;;;;;0.20;0.20;;;8.30;99.90;;;;;;4991168;28;20743;-82
2021/04/12 09:58:49;;;;;;;0.00;0.00;;;8.10;99.90;;;;;;4972773;28;20235;-81
2021/04/12 10:01:28;;;;;;;0.00;0.00;;;8.20;99.90;;;;;;4989447;28;20192;-81
2021/04/12 10:04:24;;;;;;;0.40;0.30;;;8.30;99.90;;;;;;4990451;28;20200;-82
2021/04/12 10:07:04;;;;;;;0.10;0.10;;;8.50;99.90;;;;;;4997686;28;20199;-81
2021/04/12 10:09:54;;;;;;;0.10;0.10;;;8.50;99.90;;;;;;4973603;28;20224;-81
2021/04/12 10:12:42;;;;;;;0.13;0.13;;;8.80;99.90;;;;;;4996710;28;20297;-82
2021/04/12 10:15:24;;;;;;;0.10;0.10;;;8.20;99.90;;;;;;4970660;28;20211;-82
2021/04/12 10:18:14;;;;;;;4.43;1.50;;;8.20;99.90;;;;;;4974508;28;20215;-81
2021/04/12 10:21:00;;;;;;;1.37;0.50;;;7.90;99.90;;;;;;4986894;28;20183;-82
2021/04/12 10:23:30;;;;;;;0.10;0.10;;;8.30;99.90;;;;;;4970922;28;20187;-82
2021/04/12 10:26:10;;;;;;;0.30;0.30;;;8.70;99.90;;;;;;4964289;28;20303;-82
2021/04/12 10:28:54;;;;;;;0.00;0.00;;;8.90;99.90;;;;;;4969410;28;20710;-81
2021/04/12 10:31:34;;;;;;;0.07;0.07;;;8.60;99.90;;;;;;4974039;28;20219;-82
2021/04/12 10:34:29;;;;;;;0.10;0.10;;;8.90;99.90;;;;;;4976396;28;20188;-82
2021/04/12 10:37:26;;;;;;;0.33;0.17;;;9.50;99.90;;;;;;4992523;28;20659;-80
2021/04/12 10:40:17;;;;;;;0.00;0.00;;;9.80;99.90;;;;;;4986548;28;20186;-81
2021/04/12 10:43:18;;;;;;;0.23;0.23;;;9.20;99.90;;;;;;4951198;28;20202;-82
2021/04/12 10:45:46;;;;;;;0.10;0.10;;;9.10;99.90;;;;;;4991224;28;20235;-81
2021/04/12 10:48:33;;;;;;;0.37;0.07;;;9.50;99.90;;;;;;4973529;28;20202;-82
2021/04/12 10:51:23;;;;;;;0.10;0.10;;;9.50;99.90;;;;;;4990747;28;20194;-82
2021/04/12 10:54:08;;;;;;;0.37;0.27;;;9.50;99.90;;;;;;4988152;28;20201;-81
2021/04/12 10:56:42;;;;;;;0.10;0.10;;;9.50;99.90;;;;;;4974178;28;20220;-81
2021/04/12 10:59:16;;;;;;;0.73;0.30;;;9.50;99.90;;;;;;4972131;28;20209;-79
2021/04/12 11:02:23;;;;;;;0.00;0.00;;;9.40;99.90;;;;;;4988137;28;20279;-81
2021/04/12 11:04:59;;;;;;;0.20;0.20;;;9.50;99.90;;;;;;4994136;28;20267;-82
2021/04/12 11:07:42;;;;;;;0.10;0.10;;;9.90;99.90;;;;;;4994688;28;20246;-82
2021/04/12 11:10:46;;;;;;;0.10;0.10;;;10.00;99.90;;;;;;4976009;28;20226;-82
2021/04/12 11:13:24;;;;;;;0.30;0.30;;;10.10;99.90;;;;;;4994288;28;20280;-82
2021/04/12 11:16:13;;;;;;;0.10;0.10;;;10.70;99.90;;;;;;4991344;28;20575;-82
2021/04/12 11:19:04;;;;;;;0.17;0.17;;;11.00;99.90;;;;;;4974003;28;20263;-81
2021/04/12 11:21:38;;;;;;;0.10;0.10;;;10.90;99.90;;;;;;4990867;28;20187;-80
2021/04/12 11:24:19;;;;;;;0.00;0.00;;;11.40;99.90;;;;;;4994725;28;20240;-82
2021/04/12 11:27:18;;;;;;;0.03;0.03;;;11.50;99.90;;;;;;4993451;28;20199;-81
2021/04/12 11:30:07;;;;;;;0.10;0.10;;;12.00;99.90;;;;;;4989910;28;20257;-80
2021/04/12 11:32:53;;;;;;;0.93;0.67;;;12.10;99.90;;;;;;4990363;28;20236;-79
2021/04/12 11:35:33;;;;;;;0.10;0.10;;;12.50;99.90;;;;;;4978621;28;20797;-81
2021/04/12 11:38:19;;;;;;;0.40;0.20;;;13.00;99.90;;;;;;4975734;28;20293;-80
2021/04/12 11:41:10;;;;;;;0.10;0.10;;;13.10;99.90;;;;;;4994925;28;20686;-80
2021/04/12 11:43:39;;;;;;;0.20;0.20;;;13.20;99.90;;;;;;4973923;28;20294;-79
2021/04/12 11:46:18;;;;;;;0.00;0.00;;;13.20;99.90;;;;;;4973369;28;20254;-79
2021/04/12 11:49:14;;;;;;;0.10;0.10;;;12.90;99.90;;;;;;4991785;28;20194;-79
2021/04/12 11:52:02;;;;;;;0.07;0.07;;;13.50;99.90;;;;;;4977349;28;20203;-80
2021/04/12 11:54:55;;;;;;;0.10;0.10;;;13.70;99.90;;;;;;4994183;28;20176;-80
2021/04/12 11:57:55;;;;;;;0.30;0.20;;;13.80;99.90;;;;;;4975863;28;20564;-80
2021/04/12 12:00:36;;;;;;;0.00;0.00;;;13.40;99.90;;;;;;4994039;28;20218;-79
2021/04/12 12:03:26;;;;;;;0.27;0.10;;;13.20;99.90;;;;;;4977587;28;20278;-79
2021/04/12 12:06:04;;;;;;;0.00;0.00;;;13.00;99.90;;;;;;4994252;28;20233;-79
2021/04/12 12:09:02;;;;;;;0.30;0.20;;;12.90;99.90;;;;;;4975999;28;20204;-79
2021/04/12 12:11:44;;;;;;;0.10;0.10;;;12.50;99.90;;;;;;4979085;28;20191;-79
2021/04/12 12:14:42;;;;;;;0.00;0.00;;;11.90;99.90;;;;;;4991823;28;20213;-80
2021/04/12 12:17:27;;;;;;;0.10;0.10;;;11.60;99.90;;;;;;4987510;28;20656;-79
2021/04/12 12:20:06;;;;;;;0.07;0.07;;;11.30;99.90;;;;;;4976304;28;20190;-79
2021/04/12 12:23:02;;;;;;;0.10;0.10;;;11.20;99.90;;;;;;4977417;28;20184;-80
2021/04/12 12:25:47;;;;;;;0.00;0.00;;;11.00;99.90;;;;;;4990545;28;20207;-80
2021/04/12 12:28:37;;;;;;;0.10;0.10;;;10.90;99.90;;;;;;4990646;28;20184;-79
2021/04/12 12:31:10;;;;;;;0.10;0.10;;;10.70;99.90;;;;;;4982613;28;20184;-79
2021/04/12 12:33:51;;;;;;;0.10;0.10;;;10.60;99.90;;;;;;4977789;28;20225;-80
2021/04/12 12:36:23;;;;;;;0.10;0.10;;;10.40;99.90;;;;;;4977595;28;20223;-79
2021/04/12 12:39:06;;;;;;;0.10;0.10;;;10.60;99.90;;;;;;4993436;28;20310;-80
2021/04/12 12:41:37;;;;;;;0.00;0.00;;;10.90;99.90;;;;;;4980455;28;20210;-80
2021/04/12 12:44:10;;;;;;;0.43;0.40;;;11.20;99.90;;;;;;4970885;28;20187;-79
2021/04/12 12:46:38;;;;;;;0.00;0.00;;;11.40;99.90;;;;;;4975437;28;20223;-80
2021/04/12 12:49:30;;;;;;;0.00;0.00;;;11.40;99.90;;;;;;4974623;28;20183;-80
2021/04/12 12:51:59;;;;;;;0.10;0.10;;;11.50;99.90;;;;;;4990609;28;20186;-80
2021/04/12 12:54:37;;;;;;;0.10;0.10;;;11.10;99.90;;;;;;4992958;28;20177;-79
2021/04/12 12:57:17;;;;;;;0.40;0.20;;;9.90;99.90;;;;;;4996376;28;20198;-79
2021/04/12 12:59:47;;;;;;;0.87;0.60;;;9.60;99.90;;;;;;4998438;28;20249;-78
2021/04/12 13:02:25;;;;;;;0.20;0.20;;;8.70;99.90;;;;;;4975273;28;20182;-79
2021/04/12 13:05:13;;;;;;;0.40;0.40;;;8.10;99.90;;;;;;4975413;28;20206;-80
2021/04/12 13:07:41;;;;;;;0.20;0.20;;;8.20;99.90;;;;;;4948999;28;579396;-79
2021/04/12 13:10:27;;;;;;;0.10;0.10;;;7.90;99.90;;;;;;4979655;28;20275;-78
2021/04/12 13:12:54;;;;;;;0.10;0.10;;;7.80;99.90;;;;;;4989904;28;20183;-79
2021/04/12 13:15:37;;;;;;;0.73;0.17;;;8.00;99.90;;;;;;4993433;28;20213;-79
2021/04/12 13:18:21;;;;;;;0.00;0.00;;;8.20;99.90;;;;;;4974583;28;20263;-79
2021/04/12 13:20:53;;;;;;;0.10;0.10;;;8.50;99.90;;;;;;4989560;28;20192;-79
2021/04/12 13:23:19;;;;;;;0.10;0.10;;;8.10;99.90;;;;;;4991469;28;20700;-79
2021/04/12 13:25:47;;;;;;;0.10;0.10;;;8.10;99.90;;;;;;4970069;28;20195;-80
2021/04/12 13:28:15;;;;;;;0.10;0.10;;;8.30;99.90;;;;;;4976175;28;20206;-80
2021/04/12 13:31:05;;;;;;;0.10;0.10;;;8.30;99.90;;;;;;4992873;28;20183;-79
2021/04/12 13:33:49;;;;;;;0.10;0.10;;;8.40;99.90;;;;;;4971895;28;20669;-80
2021/04/12 13:36:25;;;;;;;0.00;0.00;;;7.90;99.90;;;;;;4975683;28;20569;-80
2021/04/12 13:38:52;;;;;;;0.30;0.30;;;7.90;99.90;;;;;;4974194;28;20211;-80
2021/04/12 13:41:25;;;;;;;0.10;0.10;;;7.80;99.90;;;;;;4976145;28;20184;-79
2021/04/12 13:43:55;;;;;;;0.10;0.10;;;7.90;99.90;;;;;;4963756;28;20239;-80
2021/04/12 13:46:25;;;;;;;0.10;0.10;;;8.10;99.90;;;;;;4993445;28;20204;-79
2021/04/12 13:49:04;;;;;;;0.00;0.00;;;8.30;99.90;;;;;;4995700;28;20270;-79
2021/04/12 13:51:35;;;;;;;0.00;0.00;;;8.40;99.90;;;;;;4974648;28;20188;-79
2021/04/12 13:54:19;;;;;;;0.17;0.17;;;8.60;99.90;;;;;;4993478;28;20254;-79
2021/04/12 13:56:52;;;;;;;0.10;0.10;;;8.70;99.90;;;;;;4990861;28;20273;-80
2021/04/12 13:59:26;;;;;;;0.10;0.10;;;8.90;99.90;;;;;;4976379;28;20212;-79
2021/04/12 14:02:05;;;;;;;0.10;0.10;;;9.10;99.90;;;;;;4975639;28;20211;-79
2021/04/12 14:04:40;;;;;;;0.00;0.00;;;9.40;99.90;;;;;;4975801;28;20241;-79
2021/04/12 14:07:20;;;;;;;0.20;0.20;;;9.90;99.90;;;;;;4972144;28;20250;-81
2021/04/12 14:09:54;;;;;;;0.00;0.00;;;10.00;99.90;;;;;;4984136;28;20788;-82
2021/04/12 14:12:27;;;;;;;0.23;0.23;;;10.40;99.90;;;;;;4987368;28;20691;-82
2021/04/12 14:15:04;;;;;;;0.00;0.00;;;10.60;99.90;;;;;;4989432;28;20205;-80
2021/04/12 14:17:36;;;;;;;0.30;0.10;;;10.60;99.90;;;;;;4987599;28;20245;-80
2021/04/12 14:20:41;;;;;;;0.00;0.00;;;10.70;99.90;;;;;;4990192;28;20190;-80
2021/04/12 14:23:27;;;;;;;0.03;0.03;;;10.70;99.90;;;;;;4959517;28;20207;-81
2021/04/12 14:26:21;;;;;;;0.10;0.10;;;10.90;99.90;;;;;;4965322;28;20211;-81
2021/04/12 14:28:50;;;;;;;0.10;0.10;;;10.90;99.90;;;;;;4987283;28;20195;-81
2021/04/12 14:31:30;;;;;;;0.33;0.27;;;10.70;99.90;;;;;;4973573;28;20201;-81
2021/04/12 14:34:10;;;;;;;0.10;0.10;;;10.90;99.90;;;;;;4993504;28;20194;-80